createdAt,value
2017-09-12T00:00:25.457Z,993.38
2017-09-12T00:01:25.421Z,993.36
2017-09-12T00:02:25.474Z,993.36
2017-09-12T00:03:25.440Z,993.38
2017-09-12T00:04:26.509Z,993.33
2017-09-12T00:05:25.456Z,993.35
2017-09-12T00:06:25.493Z,993.39
2017-09-12T00:07:25.485Z,993.36
2017-09-12T00:08:26.539Z,993.36
2017-09-12T00:09:25.503Z,993.35
2017-09-12T00:10:25.705Z,993.34
2017-09-12T00:11:25.573Z,993.41
2017-09-12T00:12:26.564Z,993.36
2017-09-12T00:13:25.547Z,993.42
2017-09-12T00:14:25.656Z,993.52
2017-09-12T00:15:25.576Z,993.32
2017-09-12T00:16:25.669Z,993.37
2017-09-12T00:17:25.597Z,993.33
2017-09-12T00:18:25.682Z,993.34
2017-09-12T00:19:25.613Z,993.33
2017-09-12T00:20:27.742Z,993.37
2017-09-12T00:21:25.645Z,993.38
2017-09-12T00:22:25.709Z,993.34
2017-09-12T00:23:25.657Z,993.37
2017-09-12T00:24:25.751Z,993.39
2017-09-12T00:25:25.679Z,993.37
2017-09-12T00:26:25.736Z,993.39
2017-09-12T00:27:25.703Z,993.38
2017-09-12T00:28:25.752Z,993.37
2017-09-12T00:29:25.725Z,993.38
2017-09-12T00:30:26.788Z,993.33
2017-09-12T00:31:25.747Z,993.42
2017-09-12T00:32:25.775Z,993.40
2017-09-12T00:33:25.765Z,993.40
2017-09-12T00:34:25.894Z,993.38
2017-09-12T00:35:25.788Z,993.47
2017-09-12T00:36:25.911Z,993.42
2017-09-12T00:37:25.807Z,993.42
2017-09-12T00:38:25.997Z,993.50
2017-09-12T00:39:25.847Z,993.46
2017-09-12T00:40:25.931Z,993.48
2017-09-12T00:41:25.851Z,993.48
2017-09-12T00:42:25.947Z,993.47
2017-09-12T00:43:25.876Z,993.54
2017-09-12T00:44:25.965Z,993.50
2017-09-12T00:45:25.897Z,993.54
2017-09-12T00:46:25.975Z,993.55
2017-09-12T00:47:25.919Z,993.53
2017-09-12T00:48:28.586Z,993.53
2017-09-12T00:49:26.062Z,993.52
2017-09-12T00:50:25.952Z,993.51
2017-09-12T00:51:25.964Z,993.51
2017-09-12T00:52:25.970Z,993.50
2017-09-12T00:53:25.986Z,993.50
2017-09-12T00:54:25.994Z,993.46
2017-09-12T00:55:26.012Z,993.48
2017-09-12T00:56:26.018Z,993.49
2017-09-12T00:57:26.028Z,993.52
2017-09-12T00:58:26.040Z,993.54
2017-09-12T00:59:26.050Z,993.55
2017-09-12T01:00:26.067Z,993.58
2017-09-12T01:01:26.076Z,993.58
2017-09-12T01:02:27.165Z,993.59
2017-09-12T01:03:26.089Z,993.59
2017-09-12T01:04:27.278Z,993.59
2017-09-12T01:05:26.113Z,993.63
2017-09-12T01:06:26.127Z,993.61
2017-09-12T01:07:26.174Z,993.60
2017-09-12T01:08:26.146Z,993.56
2017-09-12T01:09:26.187Z,993.59
2017-09-12T01:10:26.165Z,993.64
2017-09-12T01:11:26.177Z,993.66
2017-09-12T01:12:26.192Z,993.62
2017-09-12T01:13:26.202Z,993.62
2017-09-12T01:14:26.211Z,993.60
2017-09-12T01:15:26.255Z,993.70
2017-09-12T01:16:26.234Z,993.69
2017-09-12T01:17:26.246Z,993.68
2017-09-12T01:18:26.256Z,993.73
2017-09-12T01:19:26.266Z,993.65
2017-09-12T01:20:26.274Z,993.67
2017-09-12T01:21:26.284Z,993.74
2017-09-12T01:22:26.307Z,993.73
2017-09-12T01:23:26.320Z,993.73
2017-09-12T01:24:26.317Z,993.73
2017-09-12T01:25:26.332Z,993.74
2017-09-12T01:26:26.407Z,993.80
2017-09-12T01:27:26.351Z,993.82
2017-09-12T01:28:27.447Z,993.79
2017-09-12T01:29:26.381Z,993.77
2017-09-12T01:30:26.385Z,993.77
2017-09-12T01:31:27.110Z,993.76
2017-09-12T01:32:26.402Z,993.77
2017-09-12T01:33:26.416Z,993.80
2017-09-12T01:34:26.430Z,993.77
2017-09-12T01:35:26.441Z,993.79
2017-09-12T01:36:26.448Z,993.78
2017-09-12T01:37:26.458Z,993.85
2017-09-12T01:38:26.466Z,993.79
2017-09-12T01:39:26.481Z,993.78
2017-09-12T01:40:26.490Z,993.79
2017-09-12T01:41:26.507Z,993.83
2017-09-12T01:42:26.514Z,993.76
2017-09-12T01:43:26.525Z,993.77
2017-09-12T01:44:26.534Z,993.81
2017-09-12T01:45:26.634Z,993.92
2017-09-12T01:46:26.567Z,993.84
2017-09-12T01:47:26.570Z,993.78
2017-09-12T01:48:26.588Z,993.80
2017-09-12T01:49:26.588Z,993.86
2017-09-12T01:50:26.608Z,993.92
2017-09-12T01:51:26.616Z,993.91
2017-09-12T01:52:26.625Z,993.85
2017-09-12T01:53:26.633Z,993.89
2017-09-12T01:54:26.637Z,993.89
2017-09-12T01:55:27.728Z,993.92
2017-09-12T01:56:26.660Z,993.93
2017-09-12T01:57:26.720Z,993.90
2017-09-12T01:58:26.680Z,993.92
2017-09-12T01:59:27.752Z,993.92
2017-09-12T02:00:26.705Z,993.91
2017-09-12T02:01:26.714Z,993.92
2017-09-12T02:02:26.720Z,993.92
2017-09-12T02:03:26.744Z,994.00
2017-09-12T02:04:26.753Z,993.91
2017-09-12T02:05:26.756Z,993.94
2017-09-12T02:06:26.767Z,993.97
2017-09-12T02:07:26.775Z,993.99
2017-09-12T02:08:26.790Z,994.05
2017-09-12T02:09:26.799Z,993.99
2017-09-12T02:10:26.813Z,993.97
2017-09-12T02:11:26.821Z,993.99
2017-09-12T02:12:26.841Z,993.96
2017-09-12T02:13:26.926Z,994.00
2017-09-12T02:14:26.858Z,994.02
2017-09-12T02:15:26.874Z,993.97
2017-09-12T02:16:26.947Z,993.97
2017-09-12T02:17:26.889Z,993.97
2017-09-12T02:18:27.987Z,993.95
2017-09-12T02:19:26.912Z,993.93
2017-09-12T02:20:26.915Z,993.90
2017-09-12T02:21:26.965Z,993.94
2017-09-12T02:22:26.990Z,993.96
2017-09-12T02:23:26.959Z,993.96
2017-09-12T02:24:26.963Z,994.00
2017-09-12T02:25:26.971Z,993.99
2017-09-12T02:26:26.982Z,993.98
2017-09-12T02:27:27.003Z,994.00
2017-09-12T02:28:27.008Z,994.00
2017-09-12T02:29:27.014Z,993.98
2017-09-12T02:30:27.023Z,994.02
2017-09-12T02:31:27.032Z,994.00
2017-09-12T02:32:27.046Z,993.99
2017-09-12T02:33:27.058Z,994.03
2017-09-12T02:34:27.065Z,993.94
2017-09-12T02:35:27.081Z,993.98
2017-09-12T02:36:27.096Z,993.97
2017-09-12T02:37:27.105Z,994.01
2017-09-12T02:38:27.111Z,993.98
2017-09-12T02:39:27.222Z,993.99
2017-09-12T02:40:27.133Z,994.01
2017-09-12T02:41:27.228Z,993.98
2017-09-12T02:42:27.157Z,993.96
2017-09-12T02:43:27.165Z,994.01
2017-09-12T02:44:27.174Z,993.99
2017-09-12T02:45:27.181Z,993.96
2017-09-12T02:46:27.195Z,993.98
2017-09-12T02:47:27.212Z,994.06
2017-09-12T02:48:27.228Z,994.01
2017-09-12T02:49:27.386Z,993.99
2017-09-12T02:50:27.243Z,994.07
2017-09-12T02:51:27.250Z,994.01
2017-09-12T02:52:27.254Z,994.01
2017-09-12T02:53:27.266Z,994.11
2017-09-12T02:54:27.284Z,994.10
2017-09-12T02:55:27.311Z,994.05
2017-09-12T02:56:27.432Z,994.10
2017-09-12T02:57:27.309Z,994.09
2017-09-12T02:58:27.442Z,994.12
2017-09-12T02:59:27.332Z,994.05
2017-09-12T03:00:27.342Z,994.06
2017-09-12T03:01:27.467Z,994.06
2017-09-12T03:02:27.374Z,994.05
2017-09-12T03:03:27.376Z,994.11
2017-09-12T03:04:27.382Z,994.06
2017-09-12T03:05:27.397Z,994.07
2017-09-12T03:06:27.408Z,994.11
2017-09-12T03:07:27.502Z,994.10
2017-09-12T03:08:27.428Z,994.10
2017-09-12T03:09:27.436Z,994.15
2017-09-12T03:10:28.555Z,994.11
2017-09-12T03:11:27.457Z,994.08
2017-09-12T03:12:27.467Z,994.10
2017-09-12T03:13:27.484Z,994.16
2017-09-12T03:14:33.234Z,994.11
2017-09-12T03:15:27.504Z,994.16
2017-09-12T03:16:27.618Z,994.17
2017-09-12T03:17:27.523Z,994.21
2017-09-12T03:18:27.636Z,994.19
2017-09-12T03:19:27.550Z,994.20
2017-09-12T03:20:27.653Z,994.17
2017-09-12T03:21:27.574Z,994.23
2017-09-12T03:22:27.666Z,994.25
2017-09-12T03:23:27.585Z,994.23
2017-09-12T03:24:27.676Z,994.25
2017-09-12T03:25:27.608Z,994.24
2017-09-12T03:26:27.688Z,994.25
2017-09-12T03:27:27.637Z,994.23
2017-09-12T03:28:27.702Z,994.28
2017-09-12T03:29:27.658Z,994.29
2017-09-12T03:30:27.719Z,994.31
2017-09-12T03:31:27.676Z,994.30
2017-09-12T03:32:27.730Z,994.27
2017-09-12T03:33:27.694Z,994.22
2017-09-12T03:34:27.742Z,994.30
2017-09-12T03:35:27.716Z,994.24
2017-09-12T03:36:27.753Z,994.22
2017-09-12T03:37:27.739Z,994.28
2017-09-12T03:38:27.872Z,994.26
2017-09-12T03:39:27.774Z,994.29
2017-09-12T03:40:27.883Z,994.34
2017-09-12T03:41:27.772Z,994.32
2017-09-12T03:42:27.924Z,994.32
2017-09-12T03:43:27.801Z,994.39
2017-09-12T03:44:27.923Z,994.34
2017-09-12T03:45:27.821Z,994.41
2017-09-12T03:46:27.927Z,994.37
2017-09-12T03:47:27.836Z,994.41
2017-09-12T03:48:27.938Z,994.42
2017-09-12T03:49:27.857Z,994.44
2017-09-12T03:50:27.962Z,994.44
2017-09-12T03:51:27.886Z,994.47
2017-09-12T03:52:28.989Z,994.55
2017-09-12T03:53:27.903Z,994.53
2017-09-12T03:54:27.978Z,994.57
2017-09-12T03:55:27.927Z,994.53
2017-09-12T03:56:27.993Z,994.61
2017-09-12T03:57:27.950Z,994.59
2017-09-12T03:58:28.004Z,994.63
2017-09-12T03:59:27.965Z,994.68
2017-09-12T04:00:28.018Z,994.59
2017-09-12T04:01:27.990Z,994.61
2017-09-12T04:02:28.135Z,994.62
2017-09-12T04:03:28.012Z,994.66
2017-09-12T04:04:28.147Z,994.68
2017-09-12T04:05:29.674Z,994.66
2017-09-12T04:06:43.715Z,994.69
2017-09-12T04:07:28.050Z,994.68
2017-09-12T04:08:30.114Z,994.69
2017-09-12T04:09:28.071Z,994.70
2017-09-12T04:10:32.795Z,994.69
2017-09-12T04:11:28.088Z,994.69
2017-09-12T04:12:28.193Z,994.69
2017-09-12T04:13:28.120Z,994.68
2017-09-12T04:14:28.210Z,994.72
2017-09-12T04:15:28.135Z,994.76
2017-09-12T04:16:28.226Z,994.74
2017-09-12T04:17:28.159Z,994.79
2017-09-12T04:18:30.281Z,994.76
2017-09-12T04:19:28.180Z,994.77
2017-09-12T04:20:30.311Z,994.82
2017-09-12T04:21:28.201Z,994.78
2017-09-12T04:22:35.226Z,994.85
2017-09-12T04:23:28.220Z,994.86
2017-09-12T04:24:28.274Z,994.81
2017-09-12T04:25:28.247Z,994.93
2017-09-12T04:26:34.260Z,994.85
2017-09-12T04:27:28.284Z,994.87
2017-09-12T04:28:35.168Z,994.94
2017-09-12T04:29:28.285Z,994.95
2017-09-12T04:30:28.420Z,994.95
2017-09-12T04:31:28.305Z,994.97
2017-09-12T04:32:28.448Z,994.97
2017-09-12T04:33:28.317Z,994.95
2017-09-12T04:34:29.575Z,994.97
2017-09-12T04:35:28.353Z,994.96
2017-09-12T04:36:28.369Z,994.93
2017-09-12T04:37:30.420Z,994.95
2017-09-12T04:38:28.369Z,994.94
2017-09-12T04:39:29.506Z,994.95
2017-09-12T04:40:28.394Z,994.95
2017-09-12T04:41:45.291Z,994.97
2017-09-12T04:42:28.436Z,994.90
2017-09-12T04:43:29.536Z,994.95
2017-09-12T04:44:28.451Z,995.01
2017-09-12T04:45:30.572Z,994.98
2017-09-12T04:46:28.459Z,994.96
2017-09-12T04:47:35.203Z,994.97
2017-09-12T04:48:28.477Z,995.02
2017-09-12T04:49:28.551Z,995.01
2017-09-12T04:50:28.504Z,995.01
2017-09-12T04:51:30.609Z,995.02
2017-09-12T04:52:28.523Z,995.02
2017-09-12T04:53:33.291Z,995.09
2017-09-12T04:54:28.543Z,995.12
2017-09-12T04:55:28.690Z,995.08
2017-09-12T04:56:28.564Z,995.06
2017-09-12T04:57:28.703Z,995.10
2017-09-12T04:58:28.583Z,995.11
2017-09-12T04:59:28.724Z,995.13
2017-09-12T05:00:28.602Z,995.22
2017-09-12T05:01:28.732Z,995.24
2017-09-12T05:02:28.625Z,995.30
2017-09-12T05:03:28.771Z,995.25
2017-09-12T05:04:28.647Z,995.28
2017-09-12T05:05:28.760Z,995.28
2017-09-12T05:06:28.664Z,995.31
2017-09-12T05:07:28.777Z,995.32
2017-09-12T05:08:28.690Z,995.39
2017-09-12T05:09:39.743Z,995.38
2017-09-12T05:10:28.708Z,995.37
2017-09-12T05:11:28.802Z,995.37
2017-09-12T05:12:28.728Z,995.41
2017-09-12T05:13:30.865Z,995.47
2017-09-12T05:14:28.758Z,995.42
2017-09-12T05:15:39.782Z,995.43
2017-09-12T05:16:28.770Z,995.40
2017-09-12T05:17:33.776Z,995.39
2017-09-12T05:18:28.791Z,995.41
2017-09-12T05:19:29.019Z,995.43
2017-09-12T05:20:28.819Z,995.47
2017-09-12T05:21:28.842Z,995.47
2017-09-12T05:22:28.839Z,995.47
2017-09-12T05:23:28.846Z,995.56
2017-09-12T05:24:28.858Z,995.54
2017-09-12T05:25:28.963Z,995.54
2017-09-12T05:26:28.870Z,995.60
2017-09-12T05:27:31.024Z,995.62
2017-09-12T05:28:28.890Z,995.63
2017-09-12T05:29:28.908Z,995.62
2017-09-12T05:30:28.914Z,995.64
2017-09-12T05:31:28.925Z,995.69
2017-09-12T05:32:28.937Z,995.67
2017-09-12T05:33:28.944Z,995.68
2017-09-12T05:34:28.957Z,995.78
2017-09-12T05:35:28.965Z,995.76
2017-09-12T05:36:28.983Z,995.67
2017-09-12T05:37:28.983Z,995.80
2017-09-12T05:38:28.997Z,995.75
2017-09-12T05:39:29.003Z,995.84
2017-09-12T05:40:29.021Z,995.83
2017-09-12T05:41:29.072Z,995.89
2017-09-12T05:42:29.046Z,995.86
2017-09-12T05:43:29.048Z,995.85
2017-09-12T05:44:29.060Z,995.89
2017-09-12T05:45:29.201Z,995.91
2017-09-12T05:46:29.074Z,995.89
2017-09-12T05:47:29.212Z,995.93
2017-09-12T05:48:29.097Z,995.95
2017-09-12T05:49:29.225Z,995.94
2017-09-12T05:50:29.118Z,996.02
2017-09-12T05:51:29.240Z,995.99
2017-09-12T05:52:29.145Z,996.04
2017-09-12T05:53:29.149Z,996.02
2017-09-12T05:54:29.164Z,996.01
2017-09-12T05:55:29.172Z,996.02
2017-09-12T05:56:29.265Z,995.99
2017-09-12T05:57:29.190Z,996.02
2017-09-12T05:58:29.201Z,996.04
2017-09-12T05:59:29.214Z,996.07
2017-09-12T06:00:35.231Z,996.06
2017-09-12T06:01:29.231Z,996.08
2017-09-12T06:02:30.325Z,996.09
2017-09-12T06:03:29.270Z,996.10
2017-09-12T06:04:29.319Z,996.14
2017-09-12T06:05:29.277Z,996.17
2017-09-12T06:06:29.314Z,996.13
2017-09-12T06:07:29.304Z,996.14
2017-09-12T06:08:29.345Z,996.13
2017-09-12T06:09:29.312Z,996.18
2017-09-12T06:10:29.361Z,996.15
2017-09-12T06:11:29.337Z,996.18
2017-09-12T06:12:29.354Z,996.21
2017-09-12T06:13:29.354Z,996.23
2017-09-12T06:14:29.486Z,996.22
2017-09-12T06:15:29.378Z,996.21
2017-09-12T06:16:29.498Z,996.23
2017-09-12T06:17:29.398Z,996.26
2017-09-12T06:18:29.413Z,996.31
2017-09-12T06:19:29.521Z,996.27
2017-09-12T06:20:29.431Z,996.28
2017-09-12T06:21:29.531Z,996.30
2017-09-12T06:22:29.450Z,996.29
2017-09-12T06:23:29.549Z,996.28
2017-09-12T06:24:29.478Z,996.30
2017-09-12T06:25:29.557Z,996.31
2017-09-12T06:26:29.496Z,996.25
2017-09-12T06:27:29.571Z,996.24
2017-09-12T06:28:29.522Z,996.25
2017-09-12T06:29:29.604Z,996.26
2017-09-12T06:30:29.537Z,996.30
2017-09-12T06:31:29.536Z,996.37
2017-09-12T06:32:29.552Z,996.39
2017-09-12T06:33:29.613Z,996.42
2017-09-12T06:34:29.578Z,996.41
2017-09-12T06:35:29.638Z,996.44
2017-09-12T06:36:29.596Z,996.44
2017-09-12T06:37:29.598Z,996.45
2017-09-12T06:38:29.649Z,996.44
2017-09-12T06:39:29.619Z,996.50
2017-09-12T06:40:29.771Z,996.53
2017-09-12T06:41:29.646Z,996.48
2017-09-12T06:42:29.777Z,996.51
2017-09-12T06:43:29.669Z,996.48
2017-09-12T06:44:29.789Z,996.48
2017-09-12T06:45:29.708Z,996.49
2017-09-12T06:46:29.806Z,996.51
2017-09-12T06:47:29.711Z,996.58
2017-09-12T06:48:29.709Z,996.56
2017-09-12T06:49:29.728Z,996.55
2017-09-12T06:50:29.734Z,996.49
2017-09-12T06:51:29.746Z,996.54
2017-09-12T06:52:29.761Z,996.52
2017-09-12T06:53:29.850Z,996.55
2017-09-12T06:54:29.783Z,996.55
2017-09-12T06:55:29.865Z,996.61
2017-09-12T06:56:29.829Z,996.66
2017-09-12T06:57:29.877Z,996.60
2017-09-12T06:58:29.815Z,996.60
2017-09-12T06:59:29.826Z,996.62
2017-09-12T07:00:29.840Z,996.71
2017-09-12T07:01:29.847Z,996.66
2017-09-12T07:02:29.914Z,996.63
2017-09-12T07:03:29.869Z,996.76
2017-09-12T07:04:29.931Z,996.58
2017-09-12T07:05:29.898Z,996.70
2017-09-12T07:06:29.911Z,996.64
2017-09-12T07:07:29.935Z,996.71
2017-09-12T07:08:29.932Z,996.69
2017-09-12T07:09:29.972Z,996.68
2017-09-12T07:10:29.962Z,996.73
2017-09-12T07:11:29.958Z,996.71
2017-09-12T07:12:29.962Z,996.74
2017-09-12T07:13:29.991Z,996.78
2017-09-12T07:14:29.986Z,996.69
2017-09-12T07:15:29.996Z,996.75
2017-09-12T07:16:30.141Z,996.80
2017-09-12T07:17:30.015Z,996.78
2017-09-12T07:18:30.147Z,996.82
2017-09-12T07:19:30.049Z,996.81
2017-09-12T07:20:30.052Z,996.85
2017-09-12T07:21:30.057Z,996.80
2017-09-12T07:22:30.070Z,996.83
2017-09-12T07:23:30.072Z,996.89
2017-09-12T07:24:30.083Z,996.92
2017-09-12T07:25:30.098Z,997.03
2017-09-12T07:26:30.106Z,997.07
2017-09-12T07:27:30.116Z,996.98
2017-09-12T07:28:30.129Z,996.96
2017-09-12T07:29:30.133Z,996.99
2017-09-12T07:30:30.141Z,997.01
2017-09-12T07:31:30.152Z,997.07
2017-09-12T07:32:30.163Z,997.05
2017-09-12T07:33:30.724Z,997.11
2017-09-12T07:34:30.188Z,997.06
2017-09-12T07:35:30.722Z,997.10
2017-09-12T07:36:30.212Z,997.18
2017-09-12T07:37:30.216Z,997.15
2017-09-12T07:38:30.245Z,997.21
2017-09-12T07:39:30.267Z,997.21
2017-09-12T07:40:30.265Z,997.25
2017-09-12T07:41:30.277Z,997.21
2017-09-12T07:42:30.402Z,997.30
2017-09-12T07:43:30.282Z,997.25
2017-09-12T07:44:30.408Z,997.28
2017-09-12T07:45:30.298Z,997.31
2017-09-12T07:46:30.430Z,997.29
2017-09-12T07:47:30.323Z,997.30
2017-09-12T07:48:31.228Z,997.34
2017-09-12T07:49:30.342Z,997.44
2017-09-12T07:50:30.352Z,997.41
2017-09-12T07:51:30.359Z,997.43
2017-09-12T07:52:30.373Z,997.48
2017-09-12T07:53:30.463Z,997.49
2017-09-12T07:54:30.423Z,997.60
2017-09-12T07:55:30.473Z,997.55
2017-09-12T07:56:30.408Z,997.60
2017-09-12T07:57:30.492Z,997.57
2017-09-12T07:58:30.431Z,997.69
2017-09-12T07:59:30.444Z,997.56
2017-09-12T08:00:30.448Z,997.59
2017-09-12T08:01:30.519Z,997.62
2017-09-12T08:02:30.476Z,997.63
2017-09-12T08:03:30.542Z,997.72
2017-09-12T08:04:30.490Z,997.71
2017-09-12T08:05:30.542Z,997.74
2017-09-12T08:06:30.512Z,997.72
2017-09-12T08:07:30.564Z,997.74
2017-09-12T08:08:30.537Z,997.79
2017-09-12T08:09:30.571Z,997.73
2017-09-12T08:10:30.553Z,997.76
2017-09-12T08:11:30.586Z,997.82
2017-09-12T08:12:30.579Z,997.83
2017-09-12T08:13:30.582Z,997.84
2017-09-12T08:14:30.599Z,997.84
2017-09-12T08:15:30.715Z,997.83
2017-09-12T08:16:30.615Z,997.94
2017-09-12T08:17:30.728Z,997.82
2017-09-12T08:18:30.635Z,997.86
2017-09-12T08:19:31.669Z,997.91
2017-09-12T08:20:30.655Z,997.96
2017-09-12T08:21:31.776Z,997.98
2017-09-12T08:22:30.678Z,997.97
2017-09-12T08:23:30.770Z,997.98
2017-09-12T08:24:30.709Z,998.01
2017-09-12T08:25:30.793Z,998.00
2017-09-12T08:26:30.716Z,998.03
2017-09-12T08:27:30.801Z,998.06
2017-09-12T08:28:30.742Z,998.03
2017-09-12T08:29:30.748Z,998.03
2017-09-12T08:30:30.761Z,998.03
2017-09-12T08:31:30.773Z,998.08
2017-09-12T08:32:30.783Z,997.99
2017-09-12T08:33:30.791Z,998.06
2017-09-12T08:34:30.800Z,998.02
2017-09-12T08:35:30.856Z,998.07
2017-09-12T08:36:30.821Z,998.09
2017-09-12T08:37:30.828Z,998.08
2017-09-12T08:38:31.894Z,998.10
2017-09-12T08:39:30.852Z,998.22
2017-09-12T08:40:30.872Z,998.11
2017-09-12T08:41:30.879Z,998.18
2017-09-12T08:42:30.898Z,998.17
2017-09-12T08:43:30.913Z,998.13
2017-09-12T08:44:30.912Z,998.17
2017-09-12T08:45:30.944Z,998.21
2017-09-12T08:46:31.040Z,998.18
2017-09-12T08:47:30.943Z,998.14
2017-09-12T08:48:30.962Z,998.18
2017-09-12T08:49:30.952Z,998.15
2017-09-12T08:50:30.968Z,998.21
2017-09-12T08:51:31.050Z,998.21
2017-09-12T08:52:30.982Z,998.25
2017-09-12T08:53:31.078Z,998.26
2017-09-12T08:54:31.013Z,998.29
2017-09-12T08:55:31.017Z,998.26
2017-09-12T08:56:31.023Z,998.28
2017-09-12T08:57:31.042Z,998.29
2017-09-12T08:58:31.047Z,998.20
2017-09-12T08:59:31.059Z,998.29
2017-09-12T09:00:31.067Z,998.30
2017-09-12T09:01:31.085Z,998.23
2017-09-12T09:02:31.088Z,998.41
2017-09-12T09:03:31.102Z,998.28
2017-09-12T09:04:31.109Z,998.32
2017-09-12T09:05:31.167Z,998.29
2017-09-12T09:06:31.123Z,998.28
2017-09-12T09:07:31.138Z,998.31
2017-09-12T09:08:31.144Z,998.34
2017-09-12T09:09:31.158Z,998.36
2017-09-12T09:10:31.166Z,998.32
2017-09-12T09:11:31.179Z,998.39
2017-09-12T09:12:31.184Z,998.36
2017-09-12T09:13:31.194Z,998.49
2017-09-12T09:14:31.209Z,998.39
2017-09-12T09:15:31.226Z,998.36
2017-09-12T09:16:31.232Z,998.45
2017-09-12T09:17:31.347Z,998.39
2017-09-12T09:18:31.255Z,998.43
2017-09-12T09:19:31.255Z,998.45
2017-09-12T09:20:31.275Z,998.37
2017-09-12T09:21:32.394Z,998.47
2017-09-12T09:22:31.302Z,998.48
2017-09-12T09:23:31.306Z,998.42
2017-09-12T09:24:31.331Z,998.37
2017-09-12T09:25:31.321Z,998.46
2017-09-12T09:26:31.333Z,998.47
2017-09-12T09:27:31.409Z,998.47
2017-09-12T09:28:31.357Z,998.45
2017-09-12T09:29:31.423Z,998.53
2017-09-12T09:30:31.377Z,998.66
2017-09-12T09:31:31.394Z,998.52
2017-09-12T09:32:31.398Z,998.45
2017-09-12T09:33:31.409Z,998.44
2017-09-12T09:34:31.417Z,998.42
2017-09-12T09:35:31.432Z,998.47
2017-09-12T09:36:31.442Z,998.51
2017-09-12T09:37:31.449Z,998.53
2017-09-12T09:38:31.463Z,998.38
2017-09-12T09:39:31.479Z,998.42
2017-09-12T09:40:43.318Z,998.37
2017-09-12T09:41:31.527Z,998.46
2017-09-12T09:42:36.355Z,998.44
2017-09-12T09:43:31.514Z,998.38
2017-09-12T09:44:32.574Z,998.47
2017-09-12T09:45:31.543Z,998.54
2017-09-12T09:46:32.584Z,998.51
2017-09-12T09:47:31.556Z,998.64
2017-09-12T09:48:33.645Z,998.51
2017-09-12T09:49:31.577Z,998.52
2017-09-12T09:50:31.612Z,998.60
2017-09-12T09:51:31.599Z,998.64
2017-09-12T09:52:31.627Z,998.67
2017-09-12T09:53:31.638Z,998.52
2017-09-12T09:54:31.627Z,998.50
2017-09-12T09:55:32.672Z,998.67
2017-09-12T09:56:31.663Z,998.58
2017-09-12T09:57:31.765Z,998.76
2017-09-12T09:58:31.674Z,998.66
2017-09-12T09:59:31.686Z,998.66
2017-09-12T10:00:31.694Z,998.75
2017-09-12T10:01:31.707Z,998.71
2017-09-12T10:02:31.722Z,998.67
2017-09-12T10:03:31.730Z,998.61
2017-09-12T10:04:31.737Z,998.83
2017-09-12T10:05:31.748Z,998.83
2017-09-12T10:06:31.760Z,998.69
2017-09-12T10:07:31.769Z,998.75
2017-09-12T10:08:31.782Z,998.68
2017-09-12T10:09:31.792Z,998.71
2017-09-12T10:10:32.884Z,998.80
2017-09-12T10:11:31.834Z,998.66
2017-09-12T10:12:33.920Z,998.72
2017-09-12T10:13:31.851Z,998.74
2017-09-12T10:14:32.902Z,998.69
2017-09-12T10:15:31.855Z,998.75
2017-09-12T10:16:31.867Z,998.71
2017-09-12T10:17:31.878Z,998.74
2017-09-12T10:18:31.886Z,998.69
2017-09-12T10:19:31.899Z,998.74
2017-09-12T10:20:31.912Z,998.76
2017-09-12T10:21:31.922Z,998.74
2017-09-12T10:22:31.931Z,998.63
2017-09-12T10:23:31.949Z,998.70
2017-09-12T10:24:31.951Z,998.68
2017-09-12T10:25:31.972Z,998.76
2017-09-12T10:26:31.980Z,998.71
2017-09-12T10:27:31.997Z,998.91
2017-09-12T10:28:32.078Z,998.71
2017-09-12T10:29:32.007Z,998.72
2017-09-12T10:30:32.091Z,998.84
2017-09-12T10:31:32.033Z,998.83
2017-09-12T10:32:32.040Z,998.80
2017-09-12T10:33:32.055Z,999.04
2017-09-12T10:34:32.065Z,998.82
2017-09-12T10:35:32.174Z,998.83
2017-09-12T10:36:32.094Z,998.89
2017-09-12T10:37:32.097Z,998.98
2017-09-12T10:38:33.167Z,998.83
2017-09-12T10:39:32.189Z,998.81
2017-09-12T10:40:32.127Z,998.82
2017-09-12T10:41:33.186Z,998.89
2017-09-12T10:42:32.158Z,998.89
2017-09-12T10:43:32.166Z,998.85
2017-09-12T10:44:32.183Z,998.98
2017-09-12T10:45:32.292Z,998.96
2017-09-12T10:46:32.197Z,998.93
2017-09-12T10:47:32.208Z,999.00
2017-09-12T10:48:32.218Z,999.01
2017-09-12T10:49:32.243Z,998.93
2017-09-12T10:50:32.247Z,999.01
2017-09-12T10:51:32.256Z,998.90
2017-09-12T10:52:32.345Z,998.96
2017-09-12T10:53:32.272Z,999.07
2017-09-12T10:54:32.284Z,999.01
2017-09-12T10:55:33.389Z,999.01
2017-09-12T10:56:32.385Z,999.05
2017-09-12T10:57:32.377Z,998.96
2017-09-12T10:58:32.332Z,998.97
2017-09-12T10:59:33.415Z,999.03
2017-09-12T11:00:32.355Z,999.03
2017-09-12T11:01:32.406Z,998.98
2017-09-12T11:02:32.377Z,999.00
2017-09-12T11:03:32.388Z,998.96
2017-09-12T11:04:32.397Z,998.93
2017-09-12T11:05:32.429Z,998.93
2017-09-12T11:06:32.420Z,998.99
2017-09-12T11:07:32.546Z,999.06
2017-09-12T11:08:32.442Z,999.05
2017-09-12T11:09:32.558Z,999.09
2017-09-12T11:10:32.465Z,999.09
2017-09-12T11:11:32.482Z,999.33
2017-09-12T11:12:32.487Z,998.95
2017-09-12T11:13:32.592Z,999.09
2017-09-12T11:14:32.510Z,999.18
2017-09-12T11:15:32.599Z,999.01
2017-09-12T11:16:32.529Z,999.05
2017-09-12T11:17:32.613Z,999.01
2017-09-12T11:18:32.556Z,999.09
2017-09-12T11:19:32.566Z,999.01
2017-09-12T11:20:32.633Z,998.97
2017-09-12T11:21:32.590Z,999.00
2017-09-12T11:22:32.645Z,998.98
2017-09-12T11:23:32.614Z,999.04
2017-09-12T11:24:32.665Z,999.02
2017-09-12T11:25:32.651Z,999.04
2017-09-12T11:26:32.672Z,999.07
2017-09-12T11:27:32.662Z,999.08
2017-09-12T11:28:32.687Z,999.16
2017-09-12T11:29:32.676Z,999.23
2017-09-12T11:30:32.803Z,999.25
2017-09-12T11:31:32.719Z,999.15
2017-09-12T11:32:32.823Z,999.30
2017-09-12T11:33:32.739Z,999.33
2017-09-12T11:34:32.846Z,999.18
2017-09-12T11:35:32.751Z,999.15
2017-09-12T11:36:32.844Z,999.30
2017-09-12T11:37:32.775Z,999.24
2017-09-12T11:38:32.857Z,999.40
2017-09-12T11:39:32.795Z,999.33
2017-09-12T11:40:32.875Z,999.31
2017-09-12T11:41:32.818Z,999.33
2017-09-12T11:42:32.886Z,999.33
2017-09-12T11:43:32.841Z,999.26
2017-09-12T11:44:32.895Z,999.29
2017-09-12T11:45:32.861Z,999.37
2017-09-12T11:46:32.911Z,999.35
2017-09-12T11:47:32.896Z,999.39
2017-09-12T11:48:34.019Z,999.33
2017-09-12T11:49:32.916Z,999.39
2017-09-12T11:50:32.980Z,999.37
2017-09-12T11:51:32.931Z,999.31
2017-09-12T11:52:34.012Z,999.42
2017-09-12T11:53:32.953Z,999.37
2017-09-12T11:54:33.003Z,999.47
2017-09-12T11:55:33.030Z,999.48
2017-09-12T11:56:33.015Z,999.44
2017-09-12T11:57:32.997Z,999.50
2017-09-12T11:58:33.335Z,999.50
2017-09-12T11:59:33.027Z,999.42
2017-09-12T12:00:34.069Z,999.47
2017-09-12T12:01:33.074Z,999.49
2017-09-12T12:02:34.082Z,999.47
2017-09-12T12:03:33.074Z,999.40
2017-09-12T12:04:33.176Z,999.44
2017-09-12T12:05:33.093Z,999.50
2017-09-12T12:06:33.183Z,999.45
2017-09-12T12:07:33.118Z,999.44
2017-09-12T12:08:33.198Z,999.49
2017-09-12T12:09:33.139Z,999.51
2017-09-12T12:10:33.215Z,999.52
2017-09-12T12:11:33.173Z,999.54
2017-09-12T12:12:33.232Z,999.42
2017-09-12T12:13:33.189Z,999.44
2017-09-12T12:14:33.213Z,999.57
2017-09-12T12:15:35.305Z,999.57
2017-09-12T12:16:33.224Z,999.49
2017-09-12T12:17:33.260Z,999.57
2017-09-12T12:18:33.249Z,999.47
2017-09-12T12:19:33.278Z,999.50
2017-09-12T12:20:33.275Z,999.44
2017-09-12T12:21:34.312Z,999.49
2017-09-12T12:22:33.301Z,999.46
2017-09-12T12:23:33.409Z,999.75
2017-09-12T12:24:33.323Z,999.50
2017-09-12T12:25:33.416Z,999.45
2017-09-12T12:26:33.342Z,999.56
2017-09-12T12:27:33.432Z,999.48
2017-09-12T12:28:33.366Z,999.48